»·PEaware :: N172SL KVNY-KSNA

N172SL :: KVNY-KSNA

FLIGHT INFORMATION

Flight Status: Arrived
Operator: Privately registered:
United States
More flights under this callsign
Pilot: Steve L. (17268)
Aircraft: CESSNA 172 SKYHAWK
(C172)
More flights by this aircraft type
Origin: KVNY Van Nuys
United States
Destination: KSNA John Wayne-Orange Co
United States
More flights between these airports :: More routes between these airports
Route: +
File this flight plan on PilotEdge
Remarks:
Altitude:
(Current/Filed)
2,500ft
Speed:
(Current/Filed)
0kts
Departed: 22-Dec-17 06:01 PM
Arrived: 22-Dec-17 06:35 PM
Distance/Time
Traveled:
44nm/0:34
Distance/Time
To Go:
Arrived

Flight Plot

Page will automatically refresh every two minutes.


Map Options




Map Legend


Flown Route
Filed Route
Departure Airport
Arrival Airport
Navaid (VOR, NDB)
Fix

Horizontal Profiles

Position Reports

Time Latitude Longitude Heading Altitude Ground
Speed
22-Dec-17 18:02 34.211372 -118.492023 88 782ft 0kts
22-Dec-17 18:03 34.212855 -118.491819 356 786ft 16kts
22-Dec-17 18:04 34.218201 -118.492327 355 797ft 15kts
22-Dec-17 18:05 34.218684 -118.492150 59 798ft 0kts
22-Dec-17 18:06 34.218687 -118.492143 60 798ft 2kts
22-Dec-17 18:07 34.205719 -118.490069 176 1163ft 76kts
22-Dec-17 18:08 34.211035 -118.508479 308 2075ft 81kts
22-Dec-17 18:09 34.220000 -118.535718 286 2656ft 104kts
22-Dec-17 18:10 34.230020 -118.569782 294 2781ft 100kts
22-Dec-17 18:11 34.226696 -118.594587 212 3764ft 79kts
22-Dec-17 18:12 34.207684 -118.588272 157 4632ft 73kts
22-Dec-17 18:13 34.188543 -118.575620 151 5202ft 102kts
22-Dec-17 18:14 34.158557 -118.559256 154 5232ft 129kts
22-Dec-17 18:15 34.128402 -118.538162 146 5225ft 121kts
22-Dec-17 18:16 34.100174 -118.516828 153 5230ft 121kts
22-Dec-17 18:17 34.069699 -118.499218 154 5233ft 121kts
22-Dec-17 18:18 34.039383 -118.481253 151 5229ft 121kts
22-Dec-17 18:19 34.009072 -118.463540 159 5219ft 122kts
22-Dec-17 18:20 33.977536 -118.448889 159 5213ft 122kts
22-Dec-17 18:21 33.945909 -118.434525 160 5216ft 122kts
22-Dec-17 18:22 33.916672 -118.415005 137 5198ft 122kts
22-Dec-17 18:23 33.892031 -118.387555 134 5164ft 122kts
22-Dec-17 18:24 33.866398 -118.360892 138 5196ft 119kts
22-Dec-17 18:25 33.841715 -118.334391 137 5260ft 119kts
22-Dec-17 18:26 33.818165 -118.306569 140 5290ft 118kts
22-Dec-17 18:27 33.792905 -118.281849 140 5289ft 116kts
22-Dec-17 18:28 33.767791 -118.257425 141 5289ft 116kts
22-Dec-17 18:29 33.756634 -118.222668 96 5272ft 117kts
22-Dec-17 18:30 33.752217 -118.181861 99 4684ft 130kts
22-Dec-17 18:31 33.745736 -118.138142 101 3811ft 133kts
22-Dec-17 18:32 33.738842 -118.094735 100 3030ft 131kts
22-Dec-17 18:33 33.732411 -118.054271 100 2398ft 127kts
22-Dec-17 18:34 33.722654 -118.016142 117 2167ft 116kts
22-Dec-17 18:35 33.707269 -117.981936 118 1968ft 116kts
22-Dec-17 18:36 33.693522 -117.947620 111 1572ft 114kts
22-Dec-17 18:37 33.686511 -117.912360 100 989ft 104kts
22-Dec-17 18:38 33.683797 -117.883320 51 963ft 87kts
22-Dec-17 18:39 33.699689 -117.866087 118 903ft 72kts
22-Dec-17 18:40 33.683283 -117.863973 208 157ft 61kts
22-Dec-17 18:41 33.678133 -117.868403 291 60ft 0kts
22-Dec-17 18:42 33.676206 -117.870979 27 60ft 9kts
22-Dec-17 18:43 33.676240 -117.870952 34 60ft 0kts
22-Dec-17 18:44 33.676240 -117.870952 34 60ft 0kts
22-Dec-17 18:45 33.676240 -117.870952 34 60ft 0kts
22-Dec-17 18:46 33.676240 -117.870952 34 60ft 0kts
22-Dec-17 18:47 33.676240 -117.870952 34 60ft 0kts
22-Dec-17 18:48 33.676240 -117.870952 34 60ft 0kts
22-Dec-17 18:49 33.676240 -117.870952 34 60ft 0kts
22-Dec-17 18:50 33.676240 -117.870952 34 60ft 0kts
22-Dec-17 18:51 33.676240 -117.870952 34 60ft 0kts
22-Dec-17 18:52 33.676240 -117.870952 34 60ft 0kts
22-Dec-17 18:53 33.677998 -117.868925 28 60ft 24kts

Navigation Log

Ident Type
1. KVNY Airport
2. KSNA Airport